Main page
METAR-TAF:

METAR-TAF

Airports :

Beauvechain Air Base

Beauvechain, Belgium

latitude: 50-45N, longitude: 004-46E, elevation: 105 m

Current weather observation

The report was made 20 minutes ago, at 00:55 UTC
Wind 5 kt from the South
Temperature 14°C
Humidity 72%
Pressure 997 hPa
Visibility 10 km or more

METAR: EBBE 240055Z AUTO 18005KT 9999 NCD 14/09 Q0997 BLU

Time: 03:15 (01:15 UTC)

Forecast

The report was made 9 hours and 34 minutes ago, at 15:41 UTC
Forecast valid from 23 at 19 UTC to 24 at 07 UTC
Wind 8 kt from the East
Visibility 10 km or more
Scattered clouds at a height of 13000 ft
Broken clouds at a height of 22000 ft

TAF: EBBE 231541Z 2319/2407 08008KT 9999 SCT130 BKN220

Weather observations and forecasts of more than 4000 airports (METAR and TAF reports).

The available stations are represented by yellow and red dots on the map.

Hover mouse over dot to see the name of the station.

Then click to see weather observations and forecasts.

To change the map : click on the green buttons with a black cross to zoom in, on the green button with a dash to zoom out, or on the green arrows for adjacent maps.


METAR-TAF: